createdAt,value
2019-06-08T00:01:18.491Z,0.77
2019-06-08T00:03:51.542Z,0.60
2019-06-08T00:06:24.309Z,0.70
2019-06-08T00:08:57.446Z,0.70
2019-06-08T00:11:30.679Z,0.80
2019-06-08T00:14:02.953Z,0.90
2019-06-08T00:16:35.146Z,0.60
2019-06-08T00:19:08.306Z,0.60
2019-06-08T00:21:40.511Z,0.57
2019-06-08T00:24:15.780Z,0.70
2019-06-08T00:26:48.769Z,0.80
2019-06-08T00:29:22.443Z,0.60
2019-06-08T00:31:56.311Z,0.60
2019-06-08T00:34:28.551Z,0.70
2019-06-08T00:37:01.684Z,0.70
2019-06-08T00:39:33.848Z,0.90
2019-06-08T00:42:06.113Z,0.70
2019-06-08T00:44:38.327Z,0.70
2019-06-08T00:47:10.656Z,0.70
2019-06-08T00:49:42.933Z,0.97
2019-06-08T00:52:16.909Z,0.80
2019-06-08T00:54:49.250Z,0.80
2019-06-08T00:57:22.169Z,0.77
2019-06-08T00:59:54.393Z,1.10
2019-06-08T01:02:28.585Z,0.77
2019-06-08T01:05:03.004Z,0.60
2019-06-08T01:07:35.172Z,0.70
2019-06-08T01:10:09.361Z,0.80
2019-06-08T01:12:41.547Z,0.70
2019-06-08T01:15:16.397Z,0.80
2019-06-08T01:18:01.611Z,0.93
2019-06-08T01:20:35.929Z,0.80
2019-06-08T01:23:08.194Z,0.80
2019-06-08T01:25:40.493Z,0.80
2019-06-08T01:28:12.688Z,0.77
2019-06-08T01:30:44.973Z,0.60
2019-06-08T01:33:17.180Z,0.80
2019-06-08T01:35:49.695Z,1.30
2019-06-08T01:38:22.915Z,0.80
2019-06-08T01:40:55.367Z,0.70
2019-06-08T01:43:27.785Z,0.83
2019-06-08T01:46:01.186Z,0.70
2019-06-08T01:48:33.331Z,0.90
2019-06-08T01:51:05.613Z,0.83
2019-06-08T01:53:37.831Z,0.80
2019-06-08T01:56:10.119Z,1.00
2019-06-08T01:58:42.278Z,0.80
2019-06-08T02:01:14.634Z,0.93
2019-06-08T02:03:46.811Z,0.90
2019-06-08T02:06:19.086Z,0.90
2019-06-08T02:08:51.246Z,0.90
2019-06-08T02:11:24.513Z,0.90
2019-06-08T02:13:56.812Z,1.12
2019-06-08T02:16:29.728Z,0.90
2019-06-08T02:19:02.114Z,0.87
2019-06-08T02:21:35.338Z,0.83
2019-06-08T02:24:07.584Z,0.70
2019-06-08T02:26:40.399Z,1.10
2019-06-08T02:29:12.676Z,1.00
2019-06-08T02:31:48.032Z,0.80
2019-06-08T02:34:21.553Z,0.93
2019-06-08T02:36:53.701Z,1.03
2019-06-08T02:39:28.526Z,0.80
2019-06-08T02:42:01.870Z,0.80
2019-06-08T02:44:36.284Z,1.20
2019-06-08T02:47:09.598Z,0.77
2019-06-08T02:49:41.850Z,0.80
2019-06-08T02:52:15.292Z,0.90
2019-06-08T02:54:47.600Z,1.10
2019-06-08T02:57:21.601Z,1.23
2019-06-08T02:59:54.845Z,0.97
2019-06-08T03:02:31.626Z,1.30
2019-06-08T03:05:05.168Z,1.10
2019-06-08T03:07:39.012Z,0.90
2019-06-08T03:10:14.702Z,1.20
2019-06-08T03:12:47.568Z,1.10
2019-06-08T03:15:32.419Z,0.80
2019-06-08T03:18:06.832Z,1.20
2019-06-08T03:20:40.118Z,1.13
2019-06-08T03:23:14.572Z,1.13
2019-06-08T03:25:53.187Z,1.43
2019-06-08T03:28:25.870Z,1.10
2019-06-08T03:30:58.193Z,1.30
2019-06-08T03:33:30.367Z,1.17
2019-06-08T03:36:03.118Z,1.37
2019-06-08T03:38:35.796Z,0.90
2019-06-08T03:41:08.229Z,1.30
2019-06-08T03:43:42.411Z,1.23
2019-06-08T03:46:14.784Z,1.30
2019-06-08T03:48:47.921Z,1.20
2019-06-08T03:51:20.163Z,1.23
2019-06-08T03:53:52.413Z,1.62
2019-06-08T03:56:25.439Z,1.30
2019-06-08T03:58:57.910Z,1.30
2019-06-08T04:01:31.805Z,1.17
2019-06-08T04:04:04.042Z,1.30
2019-06-08T04:06:37.659Z,1.60
2019-06-08T04:09:10.221Z,1.20
2019-06-08T04:11:44.303Z,1.10
2019-06-08T04:14:17.292Z,1.27
2019-06-08T04:16:50.261Z,1.30
2019-06-08T04:19:23.664Z,1.40
2019-06-08T04:21:55.992Z,1.00
2019-06-08T04:24:28.869Z,1.20
2019-06-08T04:27:01.864Z,1.10
2019-06-08T04:29:34.072Z,1.10
2019-06-08T04:32:06.349Z,1.37
2019-06-08T04:34:40.868Z,1.17
2019-06-08T04:37:15.967Z,1.10
2019-06-08T04:39:48.272Z,0.83
2019-06-08T04:42:21.166Z,1.00
2019-06-08T04:44:53.369Z,1.00
2019-06-08T04:47:27.005Z,1.20
2019-06-08T04:49:59.177Z,1.10
2019-06-08T04:52:35.252Z,1.20
2019-06-08T04:55:14.673Z,1.20
2019-06-08T04:57:52.972Z,0.97
2019-06-08T05:00:25.897Z,1.37
2019-06-08T05:02:59.540Z,1.27
2019-06-08T05:05:32.607Z,1.48
2019-06-08T05:08:08.764Z,1.30
2019-06-08T05:10:41.234Z,1.40
2019-06-08T05:13:13.763Z,1.17
2019-06-08T05:15:47.242Z,1.30
2019-06-08T05:18:19.829Z,1.37
2019-06-08T05:20:52.985Z,1.23
2019-06-08T05:23:25.277Z,1.40
2019-06-08T05:25:57.466Z,1.20
2019-06-08T05:28:30.354Z,1.40
2019-06-08T05:31:02.573Z,1.20
2019-06-08T05:33:34.822Z,1.40
2019-06-08T05:36:07.035Z,1.30
2019-06-08T05:38:39.508Z,1.20
2019-06-08T05:41:11.751Z,1.43
2019-06-08T05:43:43.999Z,1.40
2019-06-08T05:46:16.320Z,1.43
2019-06-08T05:48:50.526Z,1.33
2019-06-08T05:51:23.512Z,1.27
2019-06-08T05:53:55.800Z,1.40
2019-06-08T05:56:29.009Z,1.50
2019-06-08T05:59:01.304Z,1.37
2019-06-08T06:01:34.061Z,1.30
2019-06-08T06:04:06.302Z,1.50
2019-06-08T06:06:38.812Z,1.10
2019-06-08T06:09:14.115Z,1.00
2019-06-08T06:11:48.914Z,1.60
2019-06-08T06:14:21.258Z,1.30
2019-06-08T06:16:53.574Z,1.50
2019-06-08T06:19:25.820Z,1.27
2019-06-08T06:22:03.105Z,1.40
2019-06-08T06:24:37.175Z,1.63
2019-06-08T06:27:09.769Z,1.30
2019-06-08T06:29:43.495Z,1.30
2019-06-08T06:32:16.587Z,1.40
2019-06-08T06:34:49.912Z,1.40
2019-06-08T06:37:22.152Z,1.70
2019-06-08T06:39:55.402Z,1.70
2019-06-08T06:42:27.647Z,1.30
2019-06-08T06:45:00.944Z,1.67
2019-06-08T06:47:35.203Z,1.17
2019-06-08T06:50:08.264Z,1.90
2019-06-08T06:52:40.555Z,1.13
2019-06-08T06:55:15.441Z,1.30
2019-06-08T06:57:49.327Z,1.60
2019-06-08T07:00:32.449Z,1.40
2019-06-08T07:03:04.687Z,1.37
2019-06-08T07:05:38.562Z,1.67
2019-06-08T07:08:10.803Z,1.40
2019-06-08T07:10:44.613Z,1.40
2019-06-08T07:13:17.809Z,1.43
2019-06-08T07:15:58.439Z,1.50
2019-06-08T07:18:32.257Z,1.50
2019-06-08T07:21:06.514Z,1.62
2019-06-08T07:23:40.570Z,1.53
2019-06-08T07:26:12.838Z,1.30
2019-06-08T07:28:48.142Z,1.50
2019-06-08T07:31:21.619Z,1.67
2019-06-08T07:33:55.768Z,1.50
2019-06-08T07:36:28.071Z,1.23
2019-06-08T07:39:01.116Z,1.30
2019-06-08T07:41:33.787Z,1.67
2019-06-08T07:44:07.299Z,1.40
2019-06-08T07:46:40.077Z,1.60
2019-06-08T07:49:13.917Z,1.60
2019-06-08T07:51:58.912Z,1.50
2019-06-08T07:54:44.523Z,1.50
2019-06-08T07:57:19.414Z,1.40
2019-06-08T07:59:53.208Z,1.20
2019-06-08T08:02:27.048Z,1.30
2019-06-08T08:05:02.419Z,1.20
2019-06-08T08:07:35.261Z,1.33
2019-06-08T08:10:08.663Z,1.27
2019-06-08T08:12:45.587Z,1.33
2019-06-08T08:15:17.172Z,1.50
2019-06-08T08:17:51.922Z,1.50
2019-06-08T08:20:25.748Z,1.53
2019-06-08T08:23:06.043Z,1.30
2019-06-08T08:25:43.113Z,1.50
2019-06-08T08:28:17.554Z,1.40
2019-06-08T08:30:53.749Z,1.30
2019-06-08T08:33:27.651Z,1.00
2019-06-08T08:36:01.848Z,1.23
2019-06-08T08:38:34.384Z,1.20
2019-06-08T08:41:10.817Z,1.30
2019-06-08T08:43:43.311Z,1.37
2019-06-08T08:46:17.297Z,1.00
2019-06-08T08:48:50.901Z,1.43
2019-06-08T08:51:27.950Z,1.37
2019-06-08T08:54:04.766Z,1.30
2019-06-08T08:56:38.404Z,1.40
2019-06-08T08:59:12.894Z,1.57
2019-06-08T09:01:48.131Z,1.07
2019-06-08T09:04:20.700Z,1.10
2019-06-08T09:06:55.539Z,1.30
2019-06-08T09:09:31.815Z,1.30
2019-06-08T09:12:04.895Z,1.30
2019-06-08T09:14:41.830Z,1.20
2019-06-08T09:17:18.071Z,1.30
2019-06-08T09:19:52.528Z,1.30
2019-06-08T09:22:32.086Z,1.13
2019-06-08T09:25:08.654Z,1.00
2019-06-08T09:27:41.173Z,1.30
2019-06-08T09:30:18.047Z,1.00
2019-06-08T09:32:54.342Z,1.13
2019-06-08T09:35:28.854Z,1.40
2019-06-08T09:38:04.882Z,1.40
2019-06-08T09:40:38.616Z,1.30
2019-06-08T09:43:13.177Z,1.10
2019-06-08T09:45:48.303Z,1.50
2019-06-08T09:48:20.924Z,1.27
2019-06-08T09:50:53.151Z,1.30
2019-06-08T09:53:37.093Z,1.37
2019-06-08T09:56:13.084Z,1.50
2019-06-08T09:58:45.430Z,1.47
2019-06-08T10:01:18.742Z,1.47
2019-06-08T10:03:52.358Z,1.30
2019-06-08T10:06:25.863Z,1.10
2019-06-08T10:08:58.543Z,1.10
2019-06-08T10:11:31.108Z,1.50
2019-06-08T10:14:08.539Z,1.40
2019-06-08T10:17:02.665Z,1.30
2019-06-08T10:19:41.577Z,1.40
2019-06-08T10:22:19.997Z,1.30
2019-06-08T10:24:55.472Z,1.13
2019-06-08T10:27:32.749Z,1.30
2019-06-08T10:30:09.999Z,1.30
2019-06-08T10:32:50.386Z,1.50
2019-06-08T10:35:24.540Z,1.43
2019-06-08T10:38:01.483Z,1.50
2019-06-08T10:41:06.530Z,1.57
2019-06-08T10:43:44.989Z,1.20
2019-06-08T10:46:20.753Z,1.37
2019-06-08T10:48:55.247Z,1.20
2019-06-08T10:51:27.558Z,1.30
2019-06-08T10:53:59.996Z,1.40
2019-06-08T10:56:32.457Z,1.30
2019-06-08T10:59:07.208Z,1.20
2019-06-08T11:01:42.297Z,1.20
2019-06-08T11:04:18.621Z,1.43
2019-06-08T11:06:54.010Z,1.20
2019-06-08T11:09:28.515Z,1.50
2019-06-08T11:12:03.898Z,1.30
2019-06-08T11:14:38.270Z,1.00
2019-06-08T11:17:13.103Z,1.00
2019-06-08T11:19:47.882Z,1.30
2019-06-08T11:22:20.398Z,1.20
2019-06-08T11:24:52.659Z,1.50
2019-06-08T11:27:24.955Z,1.30
2019-06-08T11:29:57.814Z,1.40
2019-06-08T11:32:31.468Z,1.37
2019-06-08T11:35:05.790Z,1.13
2019-06-08T11:37:40.908Z,1.20
2019-06-08T11:40:14.004Z,1.30
2019-06-08T11:42:48.516Z,1.30
2019-06-08T11:45:22.304Z,1.40
2019-06-08T11:47:58.321Z,1.20
2019-06-08T11:50:49.036Z,1.37
2019-06-08T11:53:24.355Z,1.40
2019-06-08T11:55:58.608Z,1.30
2019-06-08T11:58:32.782Z,1.40
2019-06-08T12:01:11.621Z,1.50
2019-06-08T12:03:48.399Z,1.20
2019-06-08T12:06:23.556Z,1.30
2019-06-08T12:09:00.128Z,1.07
2019-06-08T12:11:33.679Z,1.30
2019-06-08T12:14:09.243Z,1.37
2019-06-08T12:16:48.526Z,1.37
2019-06-08T12:19:22.014Z,1.60
2019-06-08T12:21:54.393Z,1.30
2019-06-08T12:24:40.978Z,1.13
2019-06-08T12:27:29.545Z,1.43
2019-06-08T12:30:15.928Z,1.30
2019-06-08T12:32:50.355Z,1.55
2019-06-08T12:35:22.628Z,1.50
2019-06-08T12:37:54.948Z,1.10
2019-06-08T12:40:29.400Z,1.40
2019-06-08T12:43:01.770Z,1.60
2019-06-08T12:45:38.073Z,1.20
2019-06-08T12:51:24.222Z,1.00
2019-06-08T12:54:00.318Z,1.47
2019-06-08T12:56:32.893Z,1.58
2019-06-08T12:59:07.987Z,1.50
2019-06-08T13:01:44.552Z,1.47
2019-06-08T13:04:21.364Z,1.10
2019-06-08T13:06:54.385Z,1.30
2019-06-08T13:09:29.701Z,1.40
2019-06-08T13:12:03.416Z,1.07
2019-06-08T13:14:35.749Z,1.30
2019-06-08T13:17:10.370Z,1.10
2019-06-08T13:19:44.683Z,1.53
2019-06-08T13:22:19.362Z,1.27
2019-06-08T13:24:56.312Z,1.30
2019-06-08T13:27:30.434Z,1.27
2019-06-08T13:30:07.507Z,1.00
2019-06-08T13:32:40.751Z,1.52
2019-06-08T13:35:19.104Z,1.30
2019-06-08T13:37:52.972Z,1.40
2019-06-08T13:40:25.350Z,1.50
2019-06-08T13:42:58.756Z,1.30
2019-06-08T13:45:31.090Z,1.33
2019-06-08T13:48:04.444Z,1.40
2019-06-08T13:50:36.690Z,1.50
2019-06-08T13:53:10.869Z,1.50
2019-06-08T13:55:53.275Z,1.53
2019-06-08T13:58:33.199Z,1.30
2019-06-08T14:01:11.236Z,1.37
2019-06-08T14:03:44.244Z,1.30
2019-06-08T14:06:18.575Z,1.10
2019-06-08T14:08:52.278Z,1.40
2019-06-08T14:11:28.025Z,1.23
2019-06-08T14:14:02.027Z,1.13
2019-06-08T14:16:35.504Z,1.27
2019-06-08T14:19:08.568Z,1.20
2019-06-08T14:21:41.921Z,0.90
2019-06-08T14:24:22.823Z,1.20
2019-06-08T14:27:08.418Z,1.00
2019-06-08T14:29:41.742Z,1.37
2019-06-08T14:32:14.206Z,1.13
2019-06-08T14:34:50.195Z,1.40
2019-06-08T14:37:22.909Z,1.60
2019-06-08T14:40:08.199Z,1.43
2019-06-08T14:42:42.578Z,1.50
2019-06-08T14:45:18.138Z,1.10
2019-06-08T14:47:51.615Z,1.17
2019-06-08T14:50:29.259Z,1.80
2019-06-08T14:53:04.149Z,1.43
2019-06-08T14:55:49.962Z,1.30
2019-06-08T14:58:34.594Z,1.77
2019-06-08T15:01:23.933Z,1.20
2019-06-08T15:04:08.840Z,1.53
2019-06-08T15:06:48.662Z,1.50
2019-06-08T15:09:21.422Z,1.47
2019-06-08T15:11:54.460Z,1.30
2019-06-08T15:14:29.303Z,1.43
2019-06-08T15:17:05.488Z,1.27
2019-06-08T15:19:37.728Z,1.20
2019-06-08T15:22:11.893Z,0.93
2019-06-08T15:24:44.995Z,1.17
2019-06-08T15:27:20.885Z,1.30
2019-06-08T15:29:53.862Z,1.07
2019-06-08T15:32:28.272Z,1.00
2019-06-08T15:35:08.291Z,1.37
2019-06-08T15:37:44.572Z,1.20
2019-06-08T15:40:19.923Z,1.25
2019-06-08T15:42:52.224Z,1.10
2019-06-08T15:45:24.674Z,1.40
2019-06-08T15:47:58.648Z,1.13
2019-06-08T15:50:32.624Z,1.27
2019-06-08T15:53:08.332Z,1.17
2019-06-08T15:55:41.836Z,1.25
2019-06-08T15:58:14.159Z,1.17
2019-06-08T16:00:46.641Z,1.30
2019-06-08T16:03:34.280Z,1.03
2019-06-08T16:06:08.413Z,1.40
2019-06-08T16:08:42.154Z,1.40
2019-06-08T16:11:41.439Z,1.00
2019-06-08T16:14:13.798Z,1.20
2019-06-08T16:16:46.757Z,1.07
2019-06-08T16:19:22.028Z,1.30
2019-06-08T16:21:57.131Z,1.20
2019-06-08T16:24:31.852Z,1.17
2019-06-08T16:27:08.721Z,1.10
2019-06-08T16:29:43.223Z,1.40
2019-06-08T16:32:15.506Z,0.90
2019-06-08T16:34:48.012Z,1.07
2019-06-08T16:37:23.948Z,0.80
2019-06-08T16:40:04.786Z,1.00
2019-06-08T16:42:41.623Z,1.00
2019-06-08T16:45:17.337Z,1.23
2019-06-08T16:47:50.767Z,1.07
2019-06-08T16:50:28.079Z,1.10
2019-06-08T16:53:04.388Z,1.00
2019-06-08T16:55:40.518Z,1.03
2019-06-08T16:58:20.734Z,0.90
2019-06-08T17:00:55.256Z,0.90
2019-06-08T17:03:43.989Z,1.00
2019-06-08T17:06:17.956Z,0.90
2019-06-08T17:08:51.691Z,0.80
2019-06-08T17:11:25.202Z,1.17
2019-06-08T17:13:59.586Z,1.07
2019-06-08T17:16:46.676Z,1.10
2019-06-08T17:19:57.090Z,1.27
2019-06-08T17:22:34.496Z,1.00
2019-06-08T17:25:08.817Z,1.20
2019-06-08T17:27:42.262Z,1.40
2019-06-08T17:30:17.353Z,1.00
2019-06-08T17:32:50.580Z,1.00
2019-06-08T17:35:24.113Z,1.13
2019-06-08T17:37:56.568Z,1.07
2019-06-08T17:40:34.308Z,1.13
2019-06-08T17:43:06.715Z,1.20
2019-06-08T17:45:41.112Z,1.00
2019-06-08T17:48:17.314Z,1.17
2019-06-08T17:50:57.887Z,1.10
2019-06-08T17:53:30.361Z,1.10
2019-06-08T17:56:03.682Z,1.20
2019-06-08T17:58:39.254Z,1.10
2019-06-08T18:01:17.526Z,1.20
2019-06-08T18:03:57.487Z,1.17
2019-06-08T18:06:34.243Z,1.20
2019-06-08T18:09:07.846Z,0.90
2019-06-08T18:11:44.974Z,1.10
2019-06-08T18:14:23.639Z,0.90
2019-06-08T18:16:57.458Z,1.00
2019-06-08T18:19:32.374Z,0.97
2019-06-08T18:22:15.116Z,0.97
2019-06-08T18:24:49.564Z,1.00
2019-06-08T18:27:27.841Z,1.00
2019-06-08T18:30:08.313Z,0.80
2019-06-08T18:32:50.491Z,1.00
2019-06-08T18:35:27.752Z,1.05
2019-06-08T18:38:00.230Z,1.58
2019-06-08T18:40:37.596Z,2.40
2019-06-08T18:43:16.955Z,1.40
2019-06-08T18:45:51.902Z,1.30
2019-06-08T18:48:29.324Z,1.20
2019-06-08T18:51:04.033Z,1.30
2019-06-08T18:53:54.201Z,1.27
2019-06-08T18:56:45.084Z,0.90
2019-06-08T18:59:21.003Z,1.00
2019-06-08T19:01:53.270Z,1.10
2019-06-08T19:04:27.624Z,1.00
2019-06-08T19:07:03.308Z,1.00
2019-06-08T19:09:40.729Z,1.00
2019-06-08T19:12:17.202Z,1.00
2019-06-08T19:14:54.930Z,1.27
2019-06-08T19:17:39.784Z,1.00
2019-06-08T19:20:18.095Z,1.90
2019-06-08T19:22:54.194Z,1.30
2019-06-08T19:25:29.407Z,1.30
2019-06-08T19:28:02.409Z,1.10
2019-06-08T19:30:41.680Z,0.87
2019-06-08T19:33:17.939Z,1.10
2019-06-08T19:35:54.869Z,1.00
2019-06-08T19:38:28.730Z,1.20
2019-06-08T19:41:02.497Z,1.00
2019-06-08T19:43:35.029Z,0.80
2019-06-08T19:46:10.441Z,1.00
2019-06-08T19:48:53.200Z,1.00
2019-06-08T19:51:30.724Z,0.90
2019-06-08T19:54:06.985Z,0.90
2019-06-08T19:56:41.913Z,0.90
2019-06-08T19:59:18.675Z,1.23
2019-06-08T20:01:56.124Z,1.33
2019-06-08T20:04:28.759Z,0.90
2019-06-08T20:07:02.055Z,1.20
2019-06-08T20:09:37.619Z,1.10
2019-06-08T20:12:10.207Z,1.30
2019-06-08T20:14:43.715Z,1.30
2019-06-08T20:17:19.414Z,1.20
2019-06-08T20:19:53.437Z,0.97
2019-06-08T20:22:27.783Z,1.00
2019-06-08T20:25:10.676Z,1.83
2019-06-08T20:27:49.874Z,0.90
2019-06-08T20:30:31.429Z,1.10
2019-06-08T20:33:08.224Z,0.90
2019-06-08T20:35:43.542Z,1.07
2019-06-08T20:38:25.855Z,1.00
2019-06-08T20:41:12.445Z,1.40
2019-06-08T20:43:52.127Z,1.10
2019-06-08T20:46:28.592Z,1.37
2019-06-08T20:49:02.143Z,1.30
2019-06-08T20:51:38.025Z,1.30
2019-06-08T20:54:11.272Z,1.23
2019-06-08T20:56:47.924Z,0.83
2019-06-08T20:59:29.841Z,1.10
2019-06-08T21:02:08.400Z,2.10
2019-06-08T21:04:41.007Z,2.50
2019-06-08T21:07:14.652Z,1.80
2019-06-08T21:09:50.645Z,1.10
2019-06-08T21:12:25.086Z,1.40
2019-06-08T21:14:57.419Z,1.60
2019-06-08T21:17:29.744Z,1.67
2019-06-08T21:20:03.792Z,1.40
2019-06-08T21:22:36.769Z,1.40
2019-06-08T21:25:09.121Z,1.47
2019-06-08T21:27:43.418Z,1.60
2019-06-08T21:30:24.538Z,1.10
2019-06-08T21:33:00.594Z,1.40
2019-06-08T21:35:35.197Z,1.50
2019-06-08T21:38:22.662Z,1.50
2019-06-08T21:41:02.107Z,1.70
2019-06-08T21:43:37.429Z,1.70
2019-06-08T21:46:11.447Z,1.40
2019-06-08T21:48:44.294Z,1.67
2019-06-08T21:51:17.617Z,1.80
2019-06-08T21:53:54.223Z,1.80
2019-06-08T21:56:27.669Z,1.80
2019-06-08T21:59:01.600Z,1.63
2019-06-08T22:01:37.436Z,1.70
2019-06-08T22:04:18.606Z,1.50
2019-06-08T22:06:54.101Z,1.43
2019-06-08T22:09:31.330Z,1.70
2019-06-08T22:12:07.189Z,1.77
2019-06-08T22:14:40.724Z,1.57
2019-06-08T22:17:19.511Z,1.50
2019-06-08T22:19:53.109Z,1.70
2019-06-08T22:22:26.522Z,2.47
2019-06-08T22:25:03.680Z,1.67
2019-06-08T22:27:38.147Z,2.00
2019-06-08T22:30:32.456Z,2.00
2019-06-08T22:33:12.475Z,1.90
2019-06-08T22:35:47.802Z,1.60
2019-06-08T22:38:20.974Z,1.70
2019-06-08T22:40:57.349Z,1.80
2019-06-08T22:43:33.006Z,1.80
2019-06-08T22:46:08.246Z,1.60
2019-06-08T22:48:40.964Z,1.50
2019-06-08T22:51:18.212Z,1.70
2019-06-08T22:53:51.202Z,1.40
2019-06-08T22:56:24.221Z,1.70
2019-06-08T22:59:00.543Z,1.60
2019-06-08T23:01:38.386Z,1.50
2019-06-08T23:04:13.767Z,1.50
2019-06-08T23:06:48.288Z,1.60
2019-06-08T23:09:20.602Z,1.80
2019-06-08T23:11:52.852Z,2.10
2019-06-08T23:14:25.156Z,3.20
2019-06-08T23:16:59.591Z,2.13
2019-06-08T23:19:33.441Z,1.97
2019-06-08T23:22:12.622Z,1.97
2019-06-08T23:24:53.920Z,2.10
2019-06-08T23:27:27.968Z,2.20
2019-06-08T23:30:06.073Z,1.93
2019-06-08T23:32:44.869Z,2.10
2019-06-08T23:35:18.201Z,1.90
2019-06-08T23:37:50.754Z,2.23
2019-06-08T23:40:23.017Z,1.97
2019-06-08T23:42:55.248Z,2.40
2019-06-08T23:45:27.540Z,2.43
2019-06-08T23:48:01.048Z,2.30
2019-06-08T23:50:33.832Z,2.37
2019-06-08T23:53:09.181Z,2.10
2019-06-08T23:55:44.110Z,2.10
2019-06-08T23:58:17.462Z,2.50
